Time;durP1;ratioP1;P1;durP2;ratioP2;P2;SDS_P1;SDS_P2;PMS_P1;PMS_P2;Temp;Humidity;BMP_temperature;BMP_pressure;BME280_temperature;BME280_humidity;BME280_pressure;Samples;Min_cycle;Max_cycle;Signal;HPM_P1;HPM_P2
2023/10/21 00:02:21;;;;;;;0.30;0.30;;;;;;;;;;5021358;28;20057;-79
2023/10/21 00:04:47;;;;;;;3.53;0.52;;;;;;;;;;5024924;28;20030;-78
2023/10/21 00:07:12;;;;;;;1.40;0.70;;;;;;;;;;5023690;28;20040;-79
2023/10/21 00:09:37;;;;;;;2.63;0.40;;;;;;;;;;5019643;28;20529;-79
2023/10/21 00:12:03;;;;;;;0.30;0.30;;;;;;;;;;5041130;28;20033;-80
2023/10/21 00:14:28;;;;;;;0.47;0.47;;;;;;;;;;5046944;28;20042;-78
2023/10/21 00:16:53;;;;;;;0.50;0.50;;;;;;;;;;5047805;28;20473;-79
2023/10/21 00:19:19;;;;;;;0.38;0.38;;;;;;;;;;5046823;28;20042;-79
2023/10/21 00:21:44;;;;;;;0.35;0.35;;;;;;;;;;5044438;28;20504;-79
2023/10/21 00:24:09;;;;;;;0.40;0.40;;;;;;;;;;5038561;28;20009;-79
2023/10/21 00:26:48;;;;;;;0.45;0.45;;;;;;;;;;5048347;28;20082;-78
2023/10/21 00:29:16;;;;;;;0.40;0.40;;;;;;;;;;5047544;28;20099;-80
2023/10/21 00:31:43;;;;;;;0.60;0.60;;;;;;;;;;5046661;28;20056;-78
2023/10/21 00:34:12;;;;;;;0.57;0.57;;;;;;;;;;5046949;28;20401;-81
2023/10/21 00:36:37;;;;;;;1.27;0.60;;;;;;;;;;5047339;28;20029;-79
2023/10/21 00:39:03;;;;;;;1.35;0.57;;;;;;;;;;5048932;28;20027;-78
2023/10/21 00:41:29;;;;;;;0.65;0.65;;;;;;;;;;5046816;28;20037;-80
2023/10/21 00:43:54;;;;;;;0.50;0.50;;;;;;;;;;5038425;28;20508;-79
2023/10/21 00:46:22;;;;;;;0.50;0.50;;;;;;;;;;5040009;28;20035;-80
2023/10/21 00:48:49;;;;;;;2.55;0.50;;;;;;;;;;5043609;28;20039;-79
2023/10/21 00:51:15;;;;;;;0.82;0.60;;;;;;;;;;5042399;28;20029;-79
2023/10/21 00:53:41;;;;;;;1.10;0.80;;;;;;;;;;5047543;28;20243;-79
2023/10/21 00:56:07;;;;;;;1.90;0.55;;;;;;;;;;5043225;28;20025;-79
2023/10/21 00:58:33;;;;;;;0.50;0.50;;;;;;;;;;5041317;28;20263;-78
2023/10/21 01:01:06;;;;;;;0.60;0.60;;;;;;;;;;5044032;28;20519;-78
2023/10/21 01:03:31;;;;;;;1.83;0.77;;;;;;;;;;5046141;28;20600;-79
2023/10/21 01:05:57;;;;;;;0.73;0.70;;;;;;;;;;5047276;28;20020;-78
2023/10/21 01:08:22;;;;;;;1.10;1.00;;;;;;;;;;5047241;28;20025;-80
2023/10/21 01:10:48;;;;;;;1.65;1.30;;;;;;;;;;5045353;28;20377;-78
2023/10/21 01:13:13;;;;;;;1.23;1.10;;;;;;;;;;5047189;28;20567;-79
2023/10/21 01:15:38;;;;;;;2.38;1.33;;;;;;;;;;5043709;28;20469;-79
2023/10/21 01:18:04;;;;;;;1.00;1.00;;;;;;;;;;5044338;28;20970;-78
2023/10/21 01:20:30;;;;;;;0.95;0.95;;;;;;;;;;5047815;28;20097;-78
2023/10/21 01:23:05;;;;;;;0.98;0.98;;;;;;;;;;5049428;28;20041;-78
2023/10/21 01:25:32;;;;;;;1.40;1.10;;;;;;;;;;5041916;28;20033;-78
2023/10/21 01:27:58;;;;;;;1.00;1.00;;;;;;;;;;5048208;28;20025;-79
2023/10/21 01:30:23;;;;;;;2.15;1.25;;;;;;;;;;5040384;28;20604;-80
2023/10/21 01:32:49;;;;;;;1.23;1.13;;;;;;;;;;5045557;28;20132;-79
2023/10/21 01:35:15;;;;;;;1.10;1.00;;;;;;;;;;5049236;28;20174;-79
2023/10/21 01:37:42;;;;;;;2.70;1.25;;;;;;;;;;5044387;28;20033;-78
2023/10/21 01:40:09;;;;;;;0.85;0.85;;;;;;;;;;5042706;28;20520;-80
2023/10/21 01:42:35;;;;;;;0.95;0.90;;;;;;;;;;5026834;28;20030;-79
2023/10/21 01:45:01;;;;;;;1.98;1.15;;;;;;;;;;5029188;28;20025;-78
2023/10/21 01:47:26;;;;;;;2.05;1.08;;;;;;;;;;5025568;28;20065;-78
2023/10/21 01:49:52;;;;;;;1.20;0.90;;;;;;;;;;5035417;28;21203;-79
2023/10/21 01:52:17;;;;;;;0.85;0.85;;;;;;;;;;5052149;28;20049;-78
2023/10/21 01:54:43;;;;;;;1.05;0.95;;;;;;;;;;5052388;28;20386;-78
2023/10/21 01:57:09;;;;;;;1.10;0.85;;;;;;;;;;5046818;28;20025;-80
2023/10/21 01:59:38;;;;;;;1.60;1.02;;;;;;;;;;5049276;28;20083;-80
2023/10/21 02:02:03;;;;;;;0.80;0.80;;;;;;;;;;5045411;28;20071;-79
2023/10/21 02:04:29;;;;;;;1.02;0.90;;;;;;;;;;5047983;28;20037;-79
2023/10/21 02:06:54;;;;;;;1.05;0.95;;;;;;;;;;5050489;28;20045;-80
2023/10/21 02:09:33;;;;;;;0.80;0.80;;;;;;;;;;5048310;28;20033;-80
2023/10/21 02:11:59;;;;;;;0.85;0.85;;;;;;;;;;5053684;28;20032;-80
2023/10/21 02:14:24;;;;;;;1.17;1.00;;;;;;;;;;5049167;28;20033;-80
2023/10/21 02:16:53;;;;;;;0.95;0.85;;;;;;;;;;5053993;28;20032;-82
2023/10/21 02:19:19;;;;;;;0.65;0.63;;;;;;;;;;5058193;28;20092;-75
2023/10/21 02:21:45;;;;;;;1.15;0.90;;;;;;;;;;5057446;28;20173;-79
2023/10/21 02:24:10;;;;;;;1.02;1.02;;;;;;;;;;5057217;28;20591;-80
2023/10/21 02:26:36;;;;;;;4.50;1.00;;;;;;;;;;5058428;28;20025;-79
2023/10/21 02:29:01;;;;;;;0.82;0.82;;;;;;;;;;5057742;28;20427;-79
2023/10/21 02:31:27;;;;;;;1.52;0.90;;;;;;;;;;5056990;28;20036;-79
2023/10/21 02:33:52;;;;;;;0.82;0.82;;;;;;;;;;5058462;28;20392;-79
2023/10/21 02:36:18;;;;;;;2.72;1.15;;;;;;;;;;5057991;28;20032;-81
2023/10/21 02:38:43;;;;;;;1.25;1.00;;;;;;;;;;5059265;28;20021;-81
2023/10/21 02:41:08;;;;;;;1.17;1.00;;;;;;;;;;5058411;28;20025;-79
2023/10/21 02:43:33;;;;;;;1.73;1.20;;;;;;;;;;5057704;28;20124;-80
2023/10/21 02:46:12;;;;;;;1.02;0.93;;;;;;;;;;5057667;28;20511;-80
2023/10/21 02:48:39;;;;;;;0.90;0.90;;;;;;;;;;5056984;28;20029;-79
2023/10/21 02:51:22;;;;;;;0.80;0.80;;;;;;;;;;5057816;28;20029;-79
2023/10/21 02:53:48;;;;;;;1.00;1.00;;;;;;;;;;5057663;28;20028;-81
2023/10/21 02:56:13;;;;;;;1.60;0.93;;;;;;;;;;5057638;28;20086;-79
2023/10/21 02:58:39;;;;;;;1.85;0.85;;;;;;;;;;5057404;28;20052;-79
2023/10/21 03:01:15;;;;;;;0.70;0.70;;;;;;;;;;5056901;28;20577;-80
2023/10/21 03:03:41;;;;;;;1.20;0.80;;;;;;;;;;5057718;28;20028;-80
2023/10/21 03:06:08;;;;;;;0.70;0.70;;;;;;;;;;5057803;28;20032;-78
2023/10/21 03:08:33;;;;;;;0.80;0.80;;;;;;;;;;5057809;28;20024;-81
2023/10/21 03:11:03;;;;;;;0.70;0.70;;;;;;;;;;5056245;28;20130;-81
2023/10/21 03:13:29;;;;;;;1.42;0.60;;;;;;;;;;5057043;28;20409;-81
2023/10/21 03:15:54;;;;;;;0.80;0.80;;;;;;;;;;5056860;28;20044;-78
2023/10/21 03:18:19;;;;;;;0.70;0.70;;;;;;;;;;5058126;28;20033;-80
2023/10/21 03:20:50;;;;;;;1.83;0.75;;;;;;;;;;5057794;28;20022;-79
2023/10/21 03:23:15;;;;;;;0.80;0.80;;;;;;;;;;5056902;28;20057;-79
2023/10/21 03:25:40;;;;;;;0.75;0.70;;;;;;;;;;5055912;28;20381;-79
2023/10/21 03:28:05;;;;;;;0.80;0.80;;;;;;;;;;5057034;28;20025;-79
2023/10/21 03:30:31;;;;;;;2.72;0.85;;;;;;;;;;5057117;28;20558;-78
2023/10/21 03:32:56;;;;;;;0.63;0.63;;;;;;;;;;5057620;28;20040;-82
2023/10/21 03:35:22;;;;;;;0.80;0.80;;;;;;;;;;5056445;28;20036;-81
2023/10/21 03:37:47;;;;;;;0.80;0.80;;;;;;;;;;5056411;28;20040;-79
2023/10/21 03:40:12;;;;;;;0.60;0.60;;;;;;;;;;5055970;28;20067;-79
2023/10/21 03:42:38;;;;;;;0.60;0.60;;;;;;;;;;5056852;28;20063;-78
2023/10/21 03:45:04;;;;;;;0.60;0.60;;;;;;;;;;5056385;28;20039;-79
2023/10/21 03:47:30;;;;;;;0.50;0.50;;;;;;;;;;5057298;28;20025;-77
2023/10/21 03:49:55;;;;;;;0.52;0.52;;;;;;;;;;5056537;28;20127;-79
2023/10/21 03:52:20;;;;;;;0.82;0.70;;;;;;;;;;5056193;28;20122;-79
2023/10/21 03:54:45;;;;;;;1.00;0.60;;;;;;;;;;5055446;28;20055;-80
2023/10/21 03:57:11;;;;;;;0.47;0.47;;;;;;;;;;5056282;28;20036;-79
2023/10/21 03:59:37;;;;;;;0.60;0.60;;;;;;;;;;5056649;28;20029;-79
2023/10/21 04:02:03;;;;;;;1.65;0.60;;;;;;;;;;5055194;28;20033;-77
2023/10/21 04:04:28;;;;;;;0.50;0.50;;;;;;;;;;5056654;28;20033;-80
2023/10/21 04:06:53;;;;;;;0.52;0.52;;;;;;;;;;5056132;28;20079;-80
2023/10/21 04:09:19;;;;;;;0.70;0.70;;;;;;;;;;5056564;28;20040;-78
2023/10/21 04:11:44;;;;;;;4.72;0.85;;;;;;;;;;5055942;28;20104;-81
2023/10/21 04:14:10;;;;;;;0.80;0.80;;;;;;;;;;5056599;28;20037;-80
2023/10/21 04:16:35;;;;;;;1.17;0.73;;;;;;;;;;5055509;28;20037;-80
2023/10/21 04:19:01;;;;;;;0.85;0.70;;;;;;;;;;5056610;28;20036;-80
2023/10/21 04:21:26;;;;;;;0.90;0.90;;;;;;;;;;5054528;28;20116;-80
2023/10/21 04:23:51;;;;;;;0.80;0.80;;;;;;;;;;5057018;28;20033;-80
2023/10/21 04:26:17;;;;;;;0.88;0.88;;;;;;;;;;5056334;28;20045;-81
2023/10/21 04:28:42;;;;;;;0.80;0.80;;;;;;;;;;5056174;28;20037;-80
2023/10/21 04:31:07;;;;;;;0.60;0.60;;;;;;;;;;5056093;28;20062;-80
2023/10/21 04:33:33;;;;;;;1.58;0.80;;;;;;;;;;5055167;28;20033;-81
2023/10/21 04:35:58;;;;;;;0.70;0.70;;;;;;;;;;5055286;28;20032;-79
2023/10/21 04:38:23;;;;;;;0.50;0.50;;;;;;;;;;5055848;28;20055;-78
2023/10/21 04:40:48;;;;;;;0.52;0.52;;;;;;;;;;5055058;28;20497;-79
2023/10/21 04:43:14;;;;;;;0.30;0.30;;;;;;;;;;5055655;28;20540;-79
2023/10/21 04:45:40;;;;;;;2.92;0.50;;;;;;;;;;5054692;28;20040;-79
2023/10/21 04:48:05;;;;;;;0.45;0.45;;;;;;;;;;5027953;28;20029;-78
2023/10/21 04:50:31;;;;;;;0.40;0.40;;;;;;;;;;5042399;28;20012;-79
2023/10/21 04:52:56;;;;;;;0.43;0.43;;;;;;;;;;5050223;28;20080;-79
2023/10/21 04:55:22;;;;;;;0.40;0.40;;;;;;;;;;5049492;28;20047;-80
2023/10/21 04:57:47;;;;;;;0.25;0.25;;;;;;;;;;5045040;28;20033;-77
2023/10/21 05:00:14;;;;;;;0.50;0.50;;;;;;;;;;5047434;28;20040;-79
2023/10/21 05:02:40;;;;;;;0.40;0.40;;;;;;;;;;5048815;28;20088;-77
2023/10/21 05:05:06;;;;;;;1.27;0.50;;;;;;;;;;5049428;28;20041;-80
2023/10/21 05:07:31;;;;;;;0.43;0.40;;;;;;;;;;5050310;28;20552;-80
2023/10/21 05:09:57;;;;;;;0.40;0.40;;;;;;;;;;5048097;28;20041;-80
2023/10/21 05:12:22;;;;;;;0.40;0.40;;;;;;;;;;5049671;28;20413;-79
2023/10/21 05:14:48;;;;;;;1.30;0.32;;;;;;;;;;5048642;28;20163;-78
2023/10/21 05:17:13;;;;;;;1.73;0.40;;;;;;;;;;5049786;28;21214;-80
2023/10/21 05:19:39;;;;;;;1.23;0.68;;;;;;;;;;5048048;28;20049;-79
2023/10/21 05:22:04;;;;;;;0.30;0.30;;;;;;;;;;5048346;28;20127;-78
2023/10/21 05:24:30;;;;;;;1.38;0.45;;;;;;;;;;5054455;28;20036;-78
2023/10/21 05:26:55;;;;;;;0.50;0.50;;;;;;;;;;5057715;28;20021;-78
2023/10/21 05:29:20;;;;;;;0.85;0.40;;;;;;;;;;5055715;28;20102;-79
2023/10/21 05:31:47;;;;;;;0.35;0.35;;;;;;;;;;5051167;28;20468;-78
2023/10/21 05:34:17;;;;;;;0.38;0.38;;;;;;;;;;5055062;28;20033;-79
2023/10/21 05:36:43;;;;;;;1.48;0.70;;;;;;;;;;5053213;28;20040;-78
2023/10/21 05:39:11;;;;;;;0.40;0.40;;;;;;;;;;5049164;28;20052;-78
2023/10/21 05:41:37;;;;;;;0.30;0.30;;;;;;;;;;5051739;28;20366;-78
2023/10/21 05:44:02;;;;;;;0.50;0.50;;;;;;;;;;5053677;28;20083;-78
2023/10/21 05:46:27;;;;;;;0.40;0.40;;;;;;;;;;5049475;28;20447;-78
2023/10/21 05:48:53;;;;;;;0.60;0.60;;;;;;;;;;5051587;28;20041;-79
2023/10/21 05:51:18;;;;;;;2.60;0.40;;;;;;;;;;5052056;28;20445;-80
2023/10/21 05:53:43;;;;;;;0.50;0.50;;;;;;;;;;5052885;28;20025;-79
2023/10/21 05:56:12;;;;;;;0.30;0.30;;;;;;;;;;5047605;28;20029;-80
2023/10/21 05:58:37;;;;;;;0.38;0.38;;;;;;;;;;5049905;28;20547;-78
2023/10/21 06:01:08;;;;;;;0.40;0.40;;;;;;;;;;5048968;28;20033;-79
2023/10/21 06:03:35;;;;;;;0.68;0.40;;;;;;;;;;5053472;28;20029;-78
2023/10/21 06:06:01;;;;;;;5.93;0.60;;;;;;;;;;5050884;28;20095;-78
2023/10/21 06:08:28;;;;;;;0.77;0.60;;;;;;;;;;5049895;28;20570;-79
2023/10/21 06:10:54;;;;;;;0.40;0.40;;;;;;;;;;5050431;28;20033;-78
2023/10/21 06:13:19;;;;;;;0.30;0.30;;;;;;;;;;5053975;28;20036;-78
2023/10/21 06:15:45;;;;;;;0.38;0.38;;;;;;;;;;5053001;28;20407;-78
2023/10/21 06:18:10;;;;;;;0.40;0.40;;;;;;;;;;5053600;28;20115;-79
2023/10/21 06:20:36;;;;;;;0.50;0.50;;;;;;;;;;5047719;28;20025;-78
2023/10/21 06:23:01;;;;;;;0.50;0.50;;;;;;;;;;5051493;28;20044;-79
2023/10/21 06:25:26;;;;;;;0.50;0.50;;;;;;;;;;5051665;28;20037;-77
2023/10/21 06:28:02;;;;;;;0.50;0.50;;;;;;;;;;5053106;28;20026;-78
2023/10/21 06:30:28;;;;;;;0.35;0.35;;;;;;;;;;5052209;28;20413;-78
2023/10/21 06:32:53;;;;;;;0.50;0.50;;;;;;;;;;5054424;28;20037;-78
2023/10/21 06:35:19;;;;;;;0.32;0.32;;;;;;;;;;5054247;28;20041;-78
2023/10/21 06:37:44;;;;;;;0.32;0.32;;;;;;;;;;5050702;28;20449;-78
2023/10/21 06:40:09;;;;;;;4.38;0.40;;;;;;;;;;5050746;28;20029;-77
2023/10/21 06:42:35;;;;;;;0.35;0.35;;;;;;;;;;5049299;28;20317;-77
2023/10/21 06:45:00;;;;;;;0.40;0.40;;;;;;;;;;5049570;28;20055;-79
2023/10/21 06:47:26;;;;;;;0.50;0.50;;;;;;;;;;5047459;28;20061;-80
2023/10/21 06:49:51;;;;;;;5.78;0.50;;;;;;;;;;5047632;28;20068;-79
2023/10/21 06:52:17;;;;;;;0.40;0.40;;;;;;;;;;5051545;28;20075;-79
2023/10/21 06:54:43;;;;;;;1.55;0.40;;;;;;;;;;5045580;28;20041;-79
2023/10/21 06:57:09;;;;;;;0.40;0.40;;;;;;;;;;5046056;28;20071;-79
2023/10/21 06:59:34;;;;;;;6.90;0.52;;;;;;;;;;5048772;28;20055;-80
2023/10/21 07:02:00;;;;;;;0.40;0.40;;;;;;;;;;5046023;28;20103;-78
2023/10/21 07:04:25;;;;;;;0.30;0.30;;;;;;;;;;5049672;28;20435;-79
2023/10/21 07:06:50;;;;;;;0.50;0.50;;;;;;;;;;5042574;28;20420;-79
2023/10/21 07:09:16;;;;;;;3.90;0.45;;;;;;;;;;5044272;28;20049;-79
2023/10/21 07:11:41;;;;;;;0.50;0.50;;;;;;;;;;5048541;28;20070;-79
2023/10/21 07:14:07;;;;;;;0.40;0.40;;;;;;;;;;5044899;28;20037;-79
2023/10/21 07:16:32;;;;;;;0.40;0.40;;;;;;;;;;5047691;28;20417;-77
2023/10/21 07:18:58;;;;;;;0.45;0.45;;;;;;;;;;5052110;28;20506;-79
2023/10/21 07:21:24;;;;;;;0.30;0.30;;;;;;;;;;5049171;28;20048;-79
2023/10/21 07:23:49;;;;;;;0.47;0.47;;;;;;;;;;5045603;28;20440;-80
2023/10/21 07:26:15;;;;;;;0.57;0.57;;;;;;;;;;5052103;28;20067;-78
2023/10/21 07:28:40;;;;;;;0.40;0.40;;;;;;;;;;5049148;28;20063;-79
2023/10/21 07:31:05;;;;;;;0.40;0.40;;;;;;;;;;5047123;28;20025;-78
2023/10/21 07:33:30;;;;;;;3.13;0.43;;;;;;;;;;5051334;28;20481;-79
2023/10/21 07:35:56;;;;;;;0.30;0.30;;;;;;;;;;5053509;28;20408;-79
2023/10/21 07:38:21;;;;;;;1.13;0.45;;;;;;;;;;5048900;28;20405;-78
2023/10/21 07:40:48;;;;;;;0.30;0.30;;;;;;;;;;5048916;28;20075;-77
2023/10/21 07:43:16;;;;;;;0.32;0.32;;;;;;;;;;5051675;28;20497;-77
2023/10/21 07:45:41;;;;;;;0.45;0.45;;;;;;;;;;5044820;28;20052;-78
2023/10/21 07:48:07;;;;;;;0.47;0.45;;;;;;;;;;5047826;28;20028;-78
2023/10/21 07:50:32;;;;;;;0.35;0.35;;;;;;;;;;5049922;28;20178;-78
2023/10/21 07:52:58;;;;;;;0.20;0.20;;;;;;;;;;5045661;28;20033;-78
2023/10/21 07:55:23;;;;;;;0.20;0.20;;;;;;;;;;5050964;28;20041;-79
2023/10/21 07:57:48;;;;;;;0.28;0.28;;;;;;;;;;5047092;28;20083;-78
2023/10/21 08:00:14;;;;;;;0.32;0.32;;;;;;;;;;5049889;28;20032;-78
2023/10/21 08:02:40;;;;;;;0.30;0.30;;;;;;;;;;5046143;28;20032;-79
2023/10/21 08:05:07;;;;;;;0.30;0.30;;;;;;;;;;5050908;28;20052;-79
2023/10/21 08:07:33;;;;;;;0.25;0.25;;;;;;;;;;5054536;28;20040;-79
2023/10/21 08:10:09;;;;;;;0.32;0.32;;;;;;;;;;5046178;28;20035;-79
2023/10/21 08:12:35;;;;;;;0.50;0.50;;;;;;;;;;5020517;28;20477;-78
2023/10/21 08:15:09;;;;;;;0.30;0.30;;;;;;;;;;5025517;28;20025;-78
2023/10/21 08:17:35;;;;;;;0.70;0.40;;;;;;;;;;5024355;28;20544;-78
2023/10/21 08:20:03;;;;;;;1.30;0.40;;;;;;;;;;5040617;28;20025;-76
2023/10/21 08:22:29;;;;;;;0.43;0.30;;;;;;;;;;5050109;28;20033;-76
2023/10/21 08:24:57;;;;;;;0.77;0.60;;;;;;;;;;5051858;28;20040;-78
2023/10/21 08:27:23;;;;;;;0.30;0.30;;;;;;;;;;5051467;28;20029;-78
2023/10/21 08:29:53;;;;;;;0.30;0.30;;;;;;;;;;5051516;28;20036;-77
2023/10/21 08:32:18;;;;;;;0.38;0.38;;;;;;;;;;5050884;28;20264;-77
2023/10/21 08:34:46;;;;;;;0.30;0.30;;;;;;;;;;5050813;28;20120;-77
2023/10/21 08:37:11;;;;;;;0.30;0.30;;;;;;;;;;5051585;28;20034;-77
2023/10/21 08:39:37;;;;;;;0.30;0.30;;;;;;;;;;5050157;28;20104;-76
2023/10/21 08:42:02;;;;;;;1.55;0.40;;;;;;;;;;5042013;28;20085;-76
2023/10/21 08:44:30;;;;;;;0.30;0.30;;;;;;;;;;5030950;28;20033;-77
2023/10/21 08:47:06;;;;;;;0.40;0.40;;;;;;;;;;5031029;28;20049;-76
2023/10/21 08:49:33;;;;;;;0.20;0.20;;;;;;;;;;5032139;28;20048;-78
2023/10/21 08:52:00;;;;;;;0.38;0.38;;;;;;;;;;5043728;28;20021;-79
2023/10/21 08:54:26;;;;;;;0.30;0.30;;;;;;;;;;5042505;28;20033;-79
2023/10/21 08:56:52;;;;;;;0.28;0.28;;;;;;;;;;5040341;28;20021;-79
2023/10/21 08:59:17;;;;;;;0.30;0.30;;;;;;;;;;5044475;28;20067;-77
2023/10/21 09:01:45;;;;;;;0.40;0.40;;;;;;;;;;5045745;28;20056;-78
2023/10/21 09:04:11;;;;;;;0.32;0.32;;;;;;;;;;5053035;28;20095;-78
2023/10/21 09:06:53;;;;;;;0.45;0.45;;;;;;;;;;5048117;28;20401;-78
2023/10/21 09:09:23;;;;;;;0.52;0.30;;;;;;;;;;5046468;28;20080;-77
2023/10/21 09:12:05;;;;;;;4.13;0.30;;;;;;;;;;5026140;28;20119;-78
2023/10/21 09:14:31;;;;;;;0.35;0.35;;;;;;;;;;5020394;28;20042;-79
2023/10/21 09:16:57;;;;;;;0.40;0.40;;;;;;;;;;5024142;28;20377;-78
2023/10/21 09:19:29;;;;;;;0.30;0.30;;;;;;;;;;5024283;28;20038;-78
2023/10/21 09:21:54;;;;;;;3.30;0.40;;;;;;;;;;5052421;28;20536;-79
2023/10/21 09:24:23;;;;;;;0.75;0.40;;;;;;;;;;5048141;28;20100;-80
2023/10/21 09:26:49;;;;;;;0.20;0.20;;;;;;;;;;5047630;28;20659;-79
2023/10/21 09:29:18;;;;;;;0.30;0.30;;;;;;;;;;5051021;28;20037;-78
2023/10/21 09:31:54;;;;;;;0.30;0.30;;;;;;;;;;5025444;28;20041;-78
2023/10/21 09:34:27;;;;;;;0.30;0.30;;;;;;;;;;5024856;28;20064;-78
2023/10/21 09:36:57;;;;;;;0.30;0.30;;;;;;;;;;5030081;28;20494;-80
2023/10/21 09:39:24;;;;;;;0.30;0.30;;;;;;;;;;5024424;28;20060;-78
2023/10/21 09:41:49;;;;;;;0.30;0.30;;;;;;;;;;5043956;28;20017;-79
2023/10/21 09:44:16;;;;;;;0.30;0.30;;;;;;;;;;5055120;28;20037;-79
2023/10/21 09:46:46;;;;;;;0.30;0.30;;;;;;;;;;5051431;28;20489;-79
2023/10/21 09:49:16;;;;;;;0.45;0.38;;;;;;;;;;5054466;28;20119;-79
2023/10/21 09:52:04;;;;;;;0.38;0.30;;;;;;;;;;5046000;28;20037;-78
2023/10/21 09:54:43;;;;;;;0.32;0.32;;;;;;;;;;5052201;28;20037;-78
2023/10/21 09:57:11;;;;;;;0.55;0.55;;;;;;;;;;5054769;28;20021;-80
2023/10/21 09:59:37;;;;;;;0.50;0.50;;;;;;;;;;5048516;28;20069;-80
2023/10/21 10:02:04;;;;;;;0.50;0.50;;;;;;;;;;5044520;28;20029;-79
2023/10/21 10:04:31;;;;;;;0.40;0.40;;;;;;;;;;5049127;28;20037;-78
2023/10/21 10:06:58;;;;;;;0.40;0.40;;;;;;;;;;5053412;28;20029;-78
2023/10/21 10:09:27;;;;;;;0.30;0.30;;;;;;;;;;5051593;28;20537;-79
2023/10/21 10:11:58;;;;;;;2.75;0.60;;;;;;;;;;5048607;28;20025;-79
2023/10/21 10:14:25;;;;;;;0.43;0.43;;;;;;;;;;5053568;28;20045;-78
2023/10/21 10:16:54;;;;;;;0.47;0.43;;;;;;;;;;5054683;28;20071;-80
2023/10/21 10:19:42;;;;;;;0.32;0.32;;;;;;;;;;5049274;28;20044;-79
2023/10/21 10:22:19;;;;;;;2.50;0.50;;;;;;;;;;5054549;28;20043;-80
2023/10/21 10:25:05;;;;;;;0.40;0.40;;;;;;;;;;5057298;28;20037;-79
2023/10/21 10:27:41;;;;;;;0.50;0.50;;;;;;;;;;5054058;28;20036;-78
2023/10/21 10:30:21;;;;;;;0.32;0.32;;;;;;;;;;5055846;28;20140;-78
2023/10/21 10:32:50;;;;;;;0.25;0.25;;;;;;;;;;5057512;28;20033;-78
2023/10/21 10:35:37;;;;;;;0.43;0.43;;;;;;;;;;5053885;28;20043;-79
2023/10/21 10:38:16;;;;;;;0.40;0.40;;;;;;;;;;5055897;28;20029;-79
2023/10/21 10:40:44;;;;;;;0.50;0.50;;;;;;;;;;5055457;28;20067;-78
2023/10/21 10:43:16;;;;;;;0.30;0.30;;;;;;;;;;5059719;28;20032;-78
2023/10/21 10:45:41;;;;;;;0.40;0.40;;;;;;;;;;5075361;23;20033;-78
2023/10/21 10:48:07;;;;;;;2.30;0.50;;;;;;;;;;5036271;28;20512;-77
2023/10/21 10:50:37;;;;;;;0.40;0.40;;;;;;;;;;5048305;28;20429;-78
2023/10/21 10:53:22;;;;;;;4.97;0.30;;;;;;;;;;5050312;28;20032;-78
2023/10/21 10:55:55;;;;;;;0.30;0.30;;;;;;;;;;5045617;28;20408;-77
2023/10/21 10:58:21;;;;;;;0.40;0.40;;;;;;;;;;5050243;28;20116;-77
2023/10/21 11:00:47;;;;;;;0.32;0.30;;;;;;;;;;5034299;28;20467;-77
2023/10/21 11:03:23;;;;;;;7.57;0.63;;;;;;;;;;5023722;28;20026;-78
2023/10/21 11:05:50;;;;;;;0.40;0.40;;;;;;;;;;5030446;28;20029;-77
2023/10/21 11:08:17;;;;;;;0.75;0.50;;;;;;;;;;5024929;28;20041;-78
2023/10/21 11:10:42;;;;;;;0.45;0.45;;;;;;;;;;5036752;28;20067;-77
2023/10/21 11:13:07;;;;;;;0.30;0.30;;;;;;;;;;5048056;28;20629;-78
2023/10/21 11:15:44;;;;;;;0.45;0.45;;;;;;;;;;5043841;28;20471;-77
2023/10/21 11:18:12;;;;;;;0.30;0.30;;;;;;;;;;5044367;28;20071;-77
2023/10/21 11:20:48;;;;;;;0.32;0.32;;;;;;;;;;5048068;28;20515;-77
2023/10/21 11:23:16;;;;;;;0.30;0.30;;;;;;;;;;5050332;28;20536;-77
2023/10/21 11:25:44;;;;;;;0.35;0.35;;;;;;;;;;5041121;28;20020;-77
2023/10/21 11:28:12;;;;;;;0.35;0.35;;;;;;;;;;5049478;28;20040;-77
2023/10/21 11:30:37;;;;;;;0.43;0.43;;;;;;;;;;5045673;28;20128;-77
2023/10/21 11:33:10;;;;;;;0.60;0.47;;;;;;;;;;5049382;28;20049;-77
2023/10/21 11:35:38;;;;;;;0.30;0.30;;;;;;;;;;5046843;28;20079;-78
2023/10/21 11:38:03;;;;;;;0.30;0.30;;;;;;;;;;5050055;28;20025;-78
2023/10/21 11:40:29;;;;;;;0.50;0.50;;;;;;;;;;5036778;28;20030;-77
2023/10/21 11:43:01;;;;;;;0.80;0.30;;;;;;;;;;5025941;28;20040;-77
2023/10/21 11:45:30;;;;;;;2.13;1.00;;;;;;;;;;5021261;28;20489;-77
2023/10/21 11:47:56;;;;;;;0.40;0.40;;;;;;;;;;5026615;28;20036;-77
2023/10/21 11:50:22;;;;;;;0.40;0.40;;;;;;;;;;5037327;28;20025;-78
2023/10/21 11:52:48;;;;;;;0.50;0.50;;;;;;;;;;5048980;28;20056;-77
2023/10/21 11:58:34;;;;;;;0.40;0.40;;;;;;;;;;5044945;28;20029;-77
2023/10/21 12:02:22;;;;;;;0.30;0.30;;;;;;;;;;5035129;28;20080;-77
2023/10/21 12:24:58;;;;;;;3.05;0.50;;;;;;;;;;5022468;28;20630;-77
2023/10/21 12:35:52;;;;;;;0.75;0.45;;;;;;;;;;5022141;28;20116;-77
2023/10/21 12:43:49;;;;;;;0.30;0.30;;;;;;;;;;5022376;28;20049;-78
2023/10/21 12:46:17;;;;;;;0.40;0.40;;;;;;;;;;5024500;28;20049;-78
2023/10/21 12:48:43;;;;;;;6.13;4.80;;;;;;;;;;5034940;28;20045;-78
2023/10/21 12:51:09;;;;;;;266.67;104.95;;;;;;;;;;5049298;28;20013;-78
2023/10/21 12:53:36;;;;;;;6.78;1.38;;;;;;;;;;5043204;28;20053;-78
2023/10/21 12:56:06;;;;;;;1.90;1.80;;;;;;;;;;5026434;28;20056;-77
2023/10/21 12:58:34;;;;;;;1.52;1.45;;;;;;;;;;5019628;28;20025;-78
2023/10/21 13:01:10;;;;;;;1.60;1.48;;;;;;;;;;5017353;28;20036;-77
2023/10/21 13:03:37;;;;;;;1.30;1.30;;;;;;;;;;5041723;28;20033;-77
2023/10/21 13:06:05;;;;;;;18.88;13.82;;;;;;;;;;5049808;28;20560;-80
2023/10/21 13:08:31;;;;;;;3.10;2.80;;;;;;;;;;5044930;28;20042;-77
2023/10/21 13:10:56;;;;;;;4.70;2.55;;;;;;;;;;5044999;28;20040;-77
2023/10/21 13:13:21;;;;;;;1.83;1.48;;;;;;;;;;5048640;28;20580;-78
2023/10/21 13:15:47;;;;;;;0.82;0.82;;;;;;;;;;5048850;28;20118;-78
2023/10/21 13:18:12;;;;;;;0.98;0.98;;;;;;;;;;5049161;28;20631;-77
2023/10/21 13:20:39;;;;;;;16.30;10.35;;;;;;;;;;5047903;28;20500;-78
2023/10/21 13:23:05;;;;;;;6.60;4.55;;;;;;;;;;5032691;28;20112;-78
2023/10/21 13:25:30;;;;;;;2.45;1.23;;;;;;;;;;5027425;28;20609;-78
2023/10/21 13:27:55;;;;;;;1.05;1.05;;;;;;;;;;5032367;28;20033;-77
2023/10/21 13:30:21;;;;;;;1.33;1.08;;;;;;;;;;5028514;28;20020;-78
2023/10/21 13:32:47;;;;;;;2.58;1.50;;;;;;;;;;5044511;28;20020;-79
2023/10/21 13:35:16;;;;;;;2.03;1.92;;;;;;;;;;5049019;28;20084;-80
2023/10/21 13:37:44;;;;;;;7.13;5.72;;;;;;;;;;5044777;28;20032;-77
2023/10/21 13:40:14;;;;;;;1.73;1.63;;;;;;;;;;5044835;28;20025;-77
2023/10/21 13:42:46;;;;;;;0.82;0.82;;;;;;;;;;5043273;28;20029;-77
2023/10/21 13:45:22;;;;;;;0.40;0.40;;;;;;;;;;5051206;28;20020;-77
2023/10/21 13:47:53;;;;;;;0.40;0.40;;;;;;;;;;5048249;28;20028;-77
2023/10/21 13:50:23;;;;;;;0.30;0.30;;;;;;;;;;5050421;28;20041;-78
2023/10/21 13:52:49;;;;;;;1.23;0.60;;;;;;;;;;5046605;28;20036;-77
2023/10/21 13:55:15;;;;;;;0.50;0.50;;;;;;;;;;5049503;28;20033;-78
2023/10/21 13:57:47;;;;;;;0.60;0.60;;;;;;;;;;5048689;28;20029;-77
2023/10/21 14:03:09;;;;;;;1.15;0.40;;;;;;;;;;5050842;28;20028;-78
2023/10/21 14:05:37;;;;;;;0.73;0.60;;;;;;;;;;5047223;28;20121;-78
2023/10/21 14:08:03;;;;;;;0.90;0.60;;;;;;;;;;5048380;28;20025;-78
2023/10/21 14:10:29;;;;;;;0.50;0.50;;;;;;;;;;5046345;28;20041;-77
2023/10/21 14:12:54;;;;;;;0.60;0.60;;;;;;;;;;5049660;28;20540;-78
2023/10/21 14:15:21;;;;;;;0.65;0.50;;;;;;;;;;5048213;28;20154;-78
2023/10/21 14:17:46;;;;;;;0.40;0.40;;;;;;;;;;5050860;28;20366;-78
2023/10/21 14:20:12;;;;;;;0.47;0.47;;;;;;;;;;5052757;28;20021;-78
2023/10/21 14:22:38;;;;;;;0.50;0.50;;;;;;;;;;5052053;28;20021;-78
2023/10/21 14:25:05;;;;;;;0.50;0.50;;;;;;;;;;5052795;28;20060;-78
2023/10/21 14:27:31;;;;;;;0.60;0.60;;;;;;;;;;5053631;28;20050;-77
2023/10/21 14:30:02;;;;;;;1.05;0.75;;;;;;;;;;5054906;28;20021;-77
2023/10/21 14:32:28;;;;;;;0.50;0.50;;;;;;;;;;5048400;28;20041;-78
2023/10/21 14:34:53;;;;;;;0.80;0.60;;;;;;;;;;5053076;28;20136;-78
2023/10/21 14:37:18;;;;;;;0.98;0.52;;;;;;;;;;5052639;28;20280;-78
2023/10/21 14:39:44;;;;;;;1.17;0.68;;;;;;;;;;5050617;28;20035;-78
2023/10/21 14:42:09;;;;;;;0.50;0.50;;;;;;;;;;5050361;28;20457;-78
2023/10/21 14:44:34;;;;;;;1.33;0.80;;;;;;;;;;5049612;28;20028;-77
2023/10/21 14:46:59;;;;;;;0.75;0.75;;;;;;;;;;5050133;28;20025;-77
2023/10/21 14:49:25;;;;;;;0.80;0.80;;;;;;;;;;5049784;28;20037;-78
2023/10/21 14:51:50;;;;;;;0.60;0.60;;;;;;;;;;5048413;28;20041;-78
2023/10/21 14:54:15;;;;;;;2.38;0.77;;;;;;;;;;5032426;28;20030;-78
2023/10/21 14:56:42;;;;;;;1.60;0.80;;;;;;;;;;5034148;28;20431;-78
2023/10/21 14:59:07;;;;;;;0.70;0.70;;;;;;;;;;5031485;28;20034;-78
2023/10/21 15:01:34;;;;;;;0.55;0.55;;;;;;;;;;5037797;28;20038;-78
2023/10/21 15:03:59;;;;;;;1.08;0.85;;;;;;;;;;5025877;28;20497;-78
2023/10/21 15:06:27;;;;;;;0.90;0.90;;;;;;;;;;5026057;28;20091;-77
2023/10/21 15:08:53;;;;;;;0.93;0.70;;;;;;;;;;5029491;28;20021;-79
2023/10/21 15:11:18;;;;;;;2.25;1.13;;;;;;;;;;5037430;28;20658;-78
2023/10/21 15:13:43;;;;;;;3.75;1.27;;;;;;;;;;5050165;28;21250;-78
2023/10/21 15:16:09;;;;;;;0.88;0.88;;;;;;;;;;5043650;28;20025;-77
2023/10/21 15:18:34;;;;;;;0.80;0.80;;;;;;;;;;5044347;28;20047;-76
2023/10/21 15:21:05;;;;;;;0.60;0.60;;;;;;;;;;5045976;28;20465;-77
2023/10/21 15:23:33;;;;;;;0.90;0.85;;;;;;;;;;5048262;28;20053;-77
2023/10/21 15:25:58;;;;;;;2.65;1.60;;;;;;;;;;5043086;28;20059;-76